sensor_id;sensor_type;location;lat;lon;timestamp;temperature;humidity
63039;DHT22;49125;48.812;9.206;2022-08-19T00:01:15;22.30;80.00
63039;DHT22;49125;48.812;9.206;2022-08-19T00:03:41;22.20;80.20
63039;DHT22;49125;48.812;9.206;2022-08-19T00:06:07;22.20;80.20
63039;DHT22;49125;48.812;9.206;2022-08-19T00:08:32;22.20;80.50
63039;DHT22;49125;48.812;9.206;2022-08-19T00:10:58;22.20;80.30
63039;DHT22;49125;48.812;9.206;2022-08-19T00:13:23;22.20;80.50
63039;DHT22;49125;48.812;9.206;2022-08-19T00:15:49;22.20;80.60
63039;DHT22;49125;48.812;9.206;2022-08-19T00:18:14;22.10;80.80
63039;DHT22;49125;48.812;9.206;2022-08-19T00:20:40;22.10;80.90
63039;DHT22;49125;48.812;9.206;2022-08-19T00:23:06;22.20;81.00
63039;DHT22;49125;48.812;9.206;2022-08-19T00:25:32;22.10;81.10
63039;DHT22;49125;48.812;9.206;2022-08-19T00:27:58;22.10;81.10
63039;DHT22;49125;48.812;9.206;2022-08-19T00:30:25;22.10;81.20
63039;DHT22;49125;48.812;9.206;2022-08-19T00:32:52;22.10;81.30
63039;DHT22;49125;48.812;9.206;2022-08-19T00:35:20;22.10;81.50
63039;DHT22;49125;48.812;9.206;2022-08-19T00:37:47;22.10;81.50
63039;DHT22;49125;48.812;9.206;2022-08-19T00:40:14;22.10;81.40
63039;DHT22;49125;48.812;9.206;2022-08-19T00:42:40;22.00;81.60
63039;DHT22;49125;48.812;9.206;2022-08-19T00:45:13;22.00;81.70
63039;DHT22;49125;48.812;9.206;2022-08-19T00:47:39;22.00;81.60
63039;DHT22;49125;48.812;9.206;2022-08-19T00:50:06;22.00;81.60
63039;DHT22;49125;48.812;9.206;2022-08-19T00:52:36;22.00;81.60
63039;DHT22;49125;48.812;9.206;2022-08-19T00:55:05;22.00;82.00
63039;DHT22;49125;48.812;9.206;2022-08-19T00:57:36;22.00;81.70
63039;DHT22;49125;48.812;9.206;2022-08-19T01:00:16;22.00;81.90
63039;DHT22;49125;48.812;9.206;2022-08-19T01:02:43;22.00;81.90
63039;DHT22;49125;48.812;9.206;2022-08-19T01:05:12;22.10;81.80
63039;DHT22;49125;48.812;9.206;2022-08-19T01:07:39;22.10;82.00
63039;DHT22;49125;48.812;9.206;2022-08-19T01:10:07;22.10;82.10
63039;DHT22;49125;48.812;9.206;2022-08-19T01:12:34;22.10;82.10
63039;DHT22;49125;48.812;9.206;2022-08-19T01:14:59;22.10;82.10
63039;DHT22;49125;48.812;9.206;2022-08-19T01:17:25;22.00;82.10
63039;DHT22;49125;48.812;9.206;2022-08-19T01:19:51;22.00;82.20
63039;DHT22;49125;48.812;9.206;2022-08-19T01:24:50;22.00;82.40
63039;DHT22;49125;48.812;9.206;2022-08-19T01:27:16;21.90;82.60
63039;DHT22;49125;48.812;9.206;2022-08-19T01:29:42;21.90;82.70
63039;DHT22;49125;48.812;9.206;2022-08-19T01:32:13;21.90;82.80
63039;DHT22;49125;48.812;9.206;2022-08-19T01:34:40;21.90;82.70
63039;DHT22;49125;48.812;9.206;2022-08-19T01:37:08;21.90;82.90
63039;DHT22;49125;48.812;9.206;2022-08-19T01:39:36;21.90;83.10
63039;DHT22;49125;48.812;9.206;2022-08-19T01:42:02;21.90;83.00
63039;DHT22;49125;48.812;9.206;2022-08-19T01:44:28;21.90;83.00
63039;DHT22;49125;48.812;9.206;2022-08-19T01:46:54;21.90;83.10
63039;DHT22;49125;48.812;9.206;2022-08-19T01:49:22;21.90;83.40
63039;DHT22;49125;48.812;9.206;2022-08-19T01:51:49;21.80;83.20
63039;DHT22;49125;48.812;9.206;2022-08-19T01:54:16;21.80;83.40
63039;DHT22;49125;48.812;9.206;2022-08-19T01:56:42;21.80;83.60
63039;DHT22;49125;48.812;9.206;2022-08-19T01:59:14;21.80;83.60
63039;DHT22;49125;48.812;9.206;2022-08-19T02:01:40;21.70;83.70
63039;DHT22;49125;48.812;9.206;2022-08-19T02:04:06;21.70;83.80
63039;DHT22;49125;48.812;9.206;2022-08-19T02:06:32;21.70;84.60
63039;DHT22;49125;48.812;9.206;2022-08-19T02:08:58;21.70;84.30
63039;DHT22;49125;48.812;9.206;2022-08-19T02:11:29;21.70;84.40
63039;DHT22;49125;48.812;9.206;2022-08-19T02:13:57;21.60;84.80
63039;DHT22;49125;48.812;9.206;2022-08-19T02:16:22;21.60;84.70
63039;DHT22;49125;48.812;9.206;2022-08-19T02:18:48;21.60;84.70
63039;DHT22;49125;48.812;9.206;2022-08-19T02:21:19;21.60;85.00
63039;DHT22;49125;48.812;9.206;2022-08-19T02:23:46;21.60;85.10
63039;DHT22;49125;48.812;9.206;2022-08-19T02:26:12;21.60;85.20
63039;DHT22;49125;48.812;9.206;2022-08-19T02:28:39;21.60;85.20
63039;DHT22;49125;48.812;9.206;2022-08-19T02:31:12;21.60;85.30
63039;DHT22;49125;48.812;9.206;2022-08-19T02:33:38;21.60;85.60
63039;DHT22;49125;48.812;9.206;2022-08-19T02:36:05;21.50;85.70
63039;DHT22;49125;48.812;9.206;2022-08-19T02:38:31;21.50;85.80
63039;DHT22;49125;48.812;9.206;2022-08-19T02:41:00;21.40;86.00
63039;DHT22;49125;48.812;9.206;2022-08-19T02:43:27;21.40;86.20
63039;DHT22;49125;48.812;9.206;2022-08-19T02:45:54;21.40;86.40
63039;DHT22;49125;48.812;9.206;2022-08-19T02:48:20;21.40;86.40
63039;DHT22;49125;48.812;9.206;2022-08-19T02:50:48;21.40;86.60
63039;DHT22;49125;48.812;9.206;2022-08-19T02:53:18;21.30;86.70
63039;DHT22;49125;48.812;9.206;2022-08-19T02:55:45;21.30;86.80
63039;DHT22;49125;48.812;9.206;2022-08-19T02:58:11;21.30;86.90
63039;DHT22;49125;48.812;9.206;2022-08-19T03:00:49;21.20;87.10
63039;DHT22;49125;48.812;9.206;2022-08-19T03:03:16;21.20;87.60
63039;DHT22;49125;48.812;9.206;2022-08-19T03:05:42;21.10;87.40
63039;DHT22;49125;48.812;9.206;2022-08-19T03:08:09;21.10;87.60
63039;DHT22;49125;48.812;9.206;2022-08-19T03:10:45;21.10;87.50
63039;DHT22;49125;48.812;9.206;2022-08-19T03:13:13;21.10;88.00
63039;DHT22;49125;48.812;9.206;2022-08-19T03:15:41;21.10;88.20
63039;DHT22;49125;48.812;9.206;2022-08-19T03:18:07;21.10;88.40
63039;DHT22;49125;48.812;9.206;2022-08-19T03:20:32;21.10;88.60
63039;DHT22;49125;48.812;9.206;2022-08-19T03:22:58;21.10;88.70
63039;DHT22;49125;48.812;9.206;2022-08-19T03:25:23;21.00;88.70
63039;DHT22;49125;48.812;9.206;2022-08-19T03:27:49;21.00;89.20
63039;DHT22;49125;48.812;9.206;2022-08-19T03:30:15;21.00;88.90
63039;DHT22;49125;48.812;9.206;2022-08-19T03:32:40;21.00;88.80
63039;DHT22;49125;48.812;9.206;2022-08-19T03:35:06;21.00;88.80
63039;DHT22;49125;48.812;9.206;2022-08-19T03:37:34;20.90;88.90
63039;DHT22;49125;48.812;9.206;2022-08-19T03:40:00;20.90;89.00
63039;DHT22;49125;48.812;9.206;2022-08-19T03:42:28;20.90;89.20
63039;DHT22;49125;48.812;9.206;2022-08-19T03:44:54;20.90;89.10
63039;DHT22;49125;48.812;9.206;2022-08-19T03:47:19;20.90;89.30
63039;DHT22;49125;48.812;9.206;2022-08-19T03:49:45;20.90;89.80
63039;DHT22;49125;48.812;9.206;2022-08-19T03:52:11;20.90;89.30
63039;DHT22;49125;48.812;9.206;2022-08-19T03:54:37;20.90;89.50
63039;DHT22;49125;48.812;9.206;2022-08-19T03:57:04;20.80;89.40
63039;DHT22;49125;48.812;9.206;2022-08-19T03:59:32;20.80;89.60
63039;DHT22;49125;48.812;9.206;2022-08-19T04:02:05;20.80;89.60
63039;DHT22;49125;48.812;9.206;2022-08-19T04:04:33;20.80;89.70
63039;DHT22;49125;48.812;9.206;2022-08-19T04:06:59;20.80;89.80
63039;DHT22;49125;48.812;9.206;2022-08-19T04:09:25;20.80;89.70
63039;DHT22;49125;48.812;9.206;2022-08-19T04:11:54;20.80;89.80
63039;DHT22;49125;48.812;9.206;2022-08-19T04:14:23;20.80;89.90
63039;DHT22;49125;48.812;9.206;2022-08-19T04:16:50;20.80;90.00
63039;DHT22;49125;48.812;9.206;2022-08-19T04:19:17;20.80;90.00
63039;DHT22;49125;48.812;9.206;2022-08-19T04:21:44;20.80;90.00
63039;DHT22;49125;48.812;9.206;2022-08-19T04:24:10;20.80;90.00
63039;DHT22;49125;48.812;9.206;2022-08-19T04:26:36;20.80;90.00
63039;DHT22;49125;48.812;9.206;2022-08-19T04:29:29;20.80;90.00
63039;DHT22;49125;48.812;9.206;2022-08-19T04:31:56;20.80;90.00
63039;DHT22;49125;48.812;9.206;2022-08-19T04:34:25;20.80;90.00
63039;DHT22;49125;48.812;9.206;2022-08-19T04:36:52;20.80;90.10
63039;DHT22;49125;48.812;9.206;2022-08-19T04:39:25;20.80;90.10
63039;DHT22;49125;48.812;9.206;2022-08-19T04:42:10;20.70;90.00
63039;DHT22;49125;48.812;9.206;2022-08-19T04:44:55;20.70;90.10
63039;DHT22;49125;48.812;9.206;2022-08-19T04:47:20;20.70;90.20
63039;DHT22;49125;48.812;9.206;2022-08-19T04:49:46;20.70;90.20
63039;DHT22;49125;48.812;9.206;2022-08-19T04:52:11;20.80;90.20
63039;DHT22;49125;48.812;9.206;2022-08-19T04:54:37;20.80;90.10
63039;DHT22;49125;48.812;9.206;2022-08-19T04:57:03;20.80;90.20
63039;DHT22;49125;48.812;9.206;2022-08-19T04:59:31;20.80;90.20
63039;DHT22;49125;48.812;9.206;2022-08-19T05:01:57;20.80;90.10
63039;DHT22;49125;48.812;9.206;2022-08-19T05:04:23;20.90;90.10
63039;DHT22;49125;48.812;9.206;2022-08-19T05:06:48;20.80;90.10
63039;DHT22;49125;48.812;9.206;2022-08-19T05:09:15;20.90;90.20
63039;DHT22;49125;48.812;9.206;2022-08-19T05:11:42;20.90;90.20
63039;DHT22;49125;48.812;9.206;2022-08-19T05:14:08;20.90;90.20
63039;DHT22;49125;48.812;9.206;2022-08-19T05:16:34;20.80;90.10
63039;DHT22;49125;48.812;9.206;2022-08-19T05:19:00;20.90;90.10
63039;DHT22;49125;48.812;9.206;2022-08-19T05:21:44;20.90;90.10
63039;DHT22;49125;48.812;9.206;2022-08-19T05:24:29;20.90;90.20
63039;DHT22;49125;48.812;9.206;2022-08-19T05:26:56;20.90;90.30
63039;DHT22;49125;48.812;9.206;2022-08-19T05:29:26;21.00;90.30
63039;DHT22;49125;48.812;9.206;2022-08-19T05:31:53;21.00;90.20
63039;DHT22;49125;48.812;9.206;2022-08-19T05:34:23;20.90;90.10
63039;DHT22;49125;48.812;9.206;2022-08-19T05:36:54;21.00;90.20
63039;DHT22;49125;48.812;9.206;2022-08-19T05:39:27;21.00;90.10
63039;DHT22;49125;48.812;9.206;2022-08-19T05:42:04;21.10;90.20
63039;DHT22;49125;48.812;9.206;2022-08-19T05:44:36;21.10;90.30
63039;DHT22;49125;48.812;9.206;2022-08-19T05:47:04;21.10;90.20
63039;DHT22;49125;48.812;9.206;2022-08-19T05:49:31;21.10;90.10
63039;DHT22;49125;48.812;9.206;2022-08-19T05:51:57;21.10;90.10
63039;DHT22;49125;48.812;9.206;2022-08-19T05:54:24;21.10;90.10
63039;DHT22;49125;48.812;9.206;2022-08-19T05:56:51;21.10;90.10
63039;DHT22;49125;48.812;9.206;2022-08-19T05:59:18;21.10;90.10
63039;DHT22;49125;48.812;9.206;2022-08-19T06:01:46;21.00;90.10
63039;DHT22;49125;48.812;9.206;2022-08-19T06:04:15;21.00;90.20
63039;DHT22;49125;48.812;9.206;2022-08-19T06:06:43;21.10;90.30
63039;DHT22;49125;48.812;9.206;2022-08-19T06:09:08;21.00;90.20
63039;DHT22;49125;48.812;9.206;2022-08-19T06:11:50;21.00;90.30
63039;DHT22;49125;48.812;9.206;2022-08-19T06:14:22;21.00;90.40
63039;DHT22;49125;48.812;9.206;2022-08-19T06:16:48;21.10;90.30
63039;DHT22;49125;48.812;9.206;2022-08-19T06:19:18;21.10;90.30
63039;DHT22;49125;48.812;9.206;2022-08-19T06:21:46;21.10;90.30
63039;DHT22;49125;48.812;9.206;2022-08-19T06:24:15;21.10;90.40
63039;DHT22;49125;48.812;9.206;2022-08-19T06:26:43;21.20;90.60
63039;DHT22;49125;48.812;9.206;2022-08-19T06:29:11;21.20;90.70
63039;DHT22;49125;48.812;9.206;2022-08-19T06:31:41;21.10;90.70
63039;DHT22;49125;48.812;9.206;2022-08-19T06:34:07;21.10;90.90
63039;DHT22;49125;48.812;9.206;2022-08-19T06:36:35;21.10;91.10
63039;DHT22;49125;48.812;9.206;2022-08-19T06:39:04;21.00;91.10
63039;DHT22;49125;48.812;9.206;2022-08-19T06:41:33;21.00;91.60
63039;DHT22;49125;48.812;9.206;2022-08-19T06:43:59;21.00;91.50
63039;DHT22;49125;48.812;9.206;2022-08-19T06:46:25;20.90;91.80
63039;DHT22;49125;48.812;9.206;2022-08-19T06:48:51;20.90;91.80
63039;DHT22;49125;48.812;9.206;2022-08-19T06:51:19;20.90;91.90
63039;DHT22;49125;48.812;9.206;2022-08-19T06:53:47;20.70;91.90
63039;DHT22;49125;48.812;9.206;2022-08-19T06:56:22;20.70;92.00
63039;DHT22;49125;48.812;9.206;2022-08-19T06:58:50;20.80;92.50
63039;DHT22;49125;48.812;9.206;2022-08-19T07:01:19;20.80;92.40
63039;DHT22;49125;48.812;9.206;2022-08-19T07:03:45;20.80;92.20
63039;DHT22;49125;48.812;9.206;2022-08-19T07:06:14;20.90;92.20
63039;DHT22;49125;48.812;9.206;2022-08-19T07:08:43;21.00;92.50
63039;DHT22;49125;48.812;9.206;2022-08-19T07:11:11;21.00;92.30
63039;DHT22;49125;48.812;9.206;2022-08-19T07:13:38;21.00;92.00
63039;DHT22;49125;48.812;9.206;2022-08-19T07:16:10;21.10;92.00
63039;DHT22;49125;48.812;9.206;2022-08-19T07:18:36;21.10;91.80
63039;DHT22;49125;48.812;9.206;2022-08-19T07:21:14;21.10;91.80
63039;DHT22;49125;48.812;9.206;2022-08-19T07:23:40;21.10;91.70
63039;DHT22;49125;48.812;9.206;2022-08-19T07:26:15;21.20;91.90
63039;DHT22;49125;48.812;9.206;2022-08-19T07:28:42;21.20;91.30
63039;DHT22;49125;48.812;9.206;2022-08-19T07:31:11;21.10;91.40
63039;DHT22;49125;48.812;9.206;2022-08-19T07:33:37;21.20;91.40
63039;DHT22;49125;48.812;9.206;2022-08-19T07:36:08;21.20;91.30
63039;DHT22;49125;48.812;9.206;2022-08-19T07:38:37;21.00;91.30
63039;DHT22;49125;48.812;9.206;2022-08-19T07:41:04;21.10;91.30
63039;DHT22;49125;48.812;9.206;2022-08-19T07:43:30;21.10;91.20
63039;DHT22;49125;48.812;9.206;2022-08-19T07:45:55;21.10;91.30
63039;DHT22;49125;48.812;9.206;2022-08-19T07:48:26;21.10;91.00
63039;DHT22;49125;48.812;9.206;2022-08-19T07:50:56;21.10;91.20
63039;DHT22;49125;48.812;9.206;2022-08-19T07:53:24;21.10;91.10
63039;DHT22;49125;48.812;9.206;2022-08-19T07:55:50;21.00;91.10
63039;DHT22;49125;48.812;9.206;2022-08-19T07:58:19;21.00;91.10
63039;DHT22;49125;48.812;9.206;2022-08-19T08:00:46;21.00;91.20
63039;DHT22;49125;48.812;9.206;2022-08-19T08:03:13;21.00;91.30
63039;DHT22;49125;48.812;9.206;2022-08-19T08:05:39;21.00;92.00
63039;DHT22;49125;48.812;9.206;2022-08-19T08:08:23;21.00;92.70
63039;DHT22;49125;48.812;9.206;2022-08-19T08:10:48;20.90;92.90
63039;DHT22;49125;48.812;9.206;2022-08-19T08:13:15;20.80;92.90
63039;DHT22;49125;48.812;9.206;2022-08-19T08:15:41;20.70;93.10
63039;DHT22;49125;48.812;9.206;2022-08-19T08:18:07;20.50;93.30
63039;DHT22;49125;48.812;9.206;2022-08-19T08:20:32;20.50;93.90
63039;DHT22;49125;48.812;9.206;2022-08-19T08:22:58;20.50;94.60
63039;DHT22;49125;48.812;9.206;2022-08-19T08:25:43;20.40;94.30
63039;DHT22;49125;48.812;9.206;2022-08-19T08:28:08;20.30;94.40
63039;DHT22;49125;48.812;9.206;2022-08-19T08:30:34;20.30;94.70
63039;DHT22;49125;48.812;9.206;2022-08-19T08:33:02;20.30;94.80
63039;DHT22;49125;48.812;9.206;2022-08-19T08:35:28;20.30;95.20
63039;DHT22;49125;48.812;9.206;2022-08-19T08:37:54;20.30;95.10
63039;DHT22;49125;48.812;9.206;2022-08-19T08:40:29;20.30;95.50
63039;DHT22;49125;48.812;9.206;2022-08-19T08:43:00;20.30;95.30
63039;DHT22;49125;48.812;9.206;2022-08-19T08:45:30;20.40;95.40
63039;DHT22;49125;48.812;9.206;2022-08-19T08:48:02;20.40;95.30
63039;DHT22;49125;48.812;9.206;2022-08-19T08:50:33;20.50;95.60
63039;DHT22;49125;48.812;9.206;2022-08-19T08:53:03;20.60;95.60
63039;DHT22;49125;48.812;9.206;2022-08-19T08:55:31;20.80;95.60
63039;DHT22;49125;48.812;9.206;2022-08-19T08:58:03;21.00;95.40
63039;DHT22;49125;48.812;9.206;2022-08-19T09:00:35;21.20;95.30
63039;DHT22;49125;48.812;9.206;2022-08-19T09:03:03;21.40;95.70
63039;DHT22;49125;48.812;9.206;2022-08-19T09:11:12;21.70;94.10
63039;DHT22;49125;48.812;9.206;2022-08-19T09:16:19;21.90;94.30
63039;DHT22;49125;48.812;9.206;2022-08-19T09:18:51;22.00;94.30
63039;DHT22;49125;48.812;9.206;2022-08-19T09:21:23;22.00;93.80
63039;DHT22;49125;48.812;9.206;2022-08-19T09:23:50;22.00;94.20
63039;DHT22;49125;48.812;9.206;2022-08-19T09:26:18;22.10;94.10
63039;DHT22;49125;48.812;9.206;2022-08-19T09:28:47;22.00;94.00
63039;DHT22;49125;48.812;9.206;2022-08-19T09:31:19;22.00;94.30
63039;DHT22;49125;48.812;9.206;2022-08-19T09:33:45;22.00;94.60
63039;DHT22;49125;48.812;9.206;2022-08-19T09:36:14;21.90;93.80
63039;DHT22;49125;48.812;9.206;2022-08-19T09:38:40;21.90;93.80
63039;DHT22;49125;48.812;9.206;2022-08-19T09:41:09;21.90;93.90
63039;DHT22;49125;48.812;9.206;2022-08-19T09:43:36;22.10;94.20
63039;DHT22;49125;48.812;9.206;2022-08-19T09:46:04;22.20;94.50
63039;DHT22;49125;48.812;9.206;2022-08-19T09:48:33;22.10;94.10
63039;DHT22;49125;48.812;9.206;2022-08-19T09:51:07;22.10;93.90
63039;DHT22;49125;48.812;9.206;2022-08-19T09:53:34;22.10;93.70
63039;DHT22;49125;48.812;9.206;2022-08-19T09:56:00;22.10;93.80
63039;DHT22;49125;48.812;9.206;2022-08-19T09:58:26;22.10;93.20
63039;DHT22;49125;48.812;9.206;2022-08-19T10:00:54;22.10;93.40
63039;DHT22;49125;48.812;9.206;2022-08-19T10:03:20;22.10;93.40
63039;DHT22;49125;48.812;9.206;2022-08-19T10:05:46;22.10;93.30
63039;DHT22;49125;48.812;9.206;2022-08-19T10:08:24;22.20;93.50
63039;DHT22;49125;48.812;9.206;2022-08-19T10:10:51;22.30;93.30
63039;DHT22;49125;48.812;9.206;2022-08-19T10:13:19;22.30;93.20
63039;DHT22;49125;48.812;9.206;2022-08-19T10:15:48;22.40;93.10
63039;DHT22;49125;48.812;9.206;2022-08-19T10:18:16;22.40;93.10
63039;DHT22;49125;48.812;9.206;2022-08-19T10:20:43;22.50;92.60
63039;DHT22;49125;48.812;9.206;2022-08-19T10:23:11;22.50;92.90
63039;DHT22;49125;48.812;9.206;2022-08-19T10:25:39;22.70;92.70
63039;DHT22;49125;48.812;9.206;2022-08-19T10:28:05;22.70;92.60
63039;DHT22;49125;48.812;9.206;2022-08-19T10:30:36;22.70;92.00
63039;DHT22;49125;48.812;9.206;2022-08-19T10:33:01;22.80;92.10
63039;DHT22;49125;48.812;9.206;2022-08-19T10:35:27;22.80;92.10
63039;DHT22;49125;48.812;9.206;2022-08-19T10:37:55;23.00;92.50
63039;DHT22;49125;48.812;9.206;2022-08-19T10:40:24;23.10;92.70
63039;DHT22;49125;48.812;9.206;2022-08-19T10:42:50;23.20;92.30
63039;DHT22;49125;48.812;9.206;2022-08-19T10:45:16;23.40;92.10
63039;DHT22;49125;48.812;9.206;2022-08-19T10:47:42;23.50;91.70
63039;DHT22;49125;48.812;9.206;2022-08-19T10:50:07;23.60;91.30
63039;DHT22;49125;48.812;9.206;2022-08-19T10:52:52;23.50;90.70
63039;DHT22;49125;48.812;9.206;2022-08-19T10:55:20;23.50;90.60
63039;DHT22;49125;48.812;9.206;2022-08-19T10:58:10;23.40;90.50
63039;DHT22;49125;48.812;9.206;2022-08-19T11:00:36;23.30;90.20
63039;DHT22;49125;48.812;9.206;2022-08-19T11:03:02;23.30;90.60
63039;DHT22;49125;48.812;9.206;2022-08-19T11:05:27;23.30;90.80
63039;DHT22;49125;48.812;9.206;2022-08-19T11:07:53;23.20;90.40
63039;DHT22;49125;48.812;9.206;2022-08-19T11:10:19;23.20;90.40
63039;DHT22;49125;48.812;9.206;2022-08-19T11:12:45;23.20;90.10
63039;DHT22;49125;48.812;9.206;2022-08-19T11:15:11;23.30;90.10
63039;DHT22;49125;48.812;9.206;2022-08-19T11:17:38;23.30;90.00
63039;DHT22;49125;48.812;9.206;2022-08-19T11:20:10;23.50;90.20
63039;DHT22;49125;48.812;9.206;2022-08-19T11:22:36;23.60;89.50
63039;DHT22;49125;48.812;9.206;2022-08-19T11:25:01;23.60;88.50
63039;DHT22;49125;48.812;9.206;2022-08-19T11:27:27;23.70;89.70
63039;DHT22;49125;48.812;9.206;2022-08-19T11:29:54;23.90;90.10
63039;DHT22;49125;48.812;9.206;2022-08-19T11:32:19;24.10;89.90
63039;DHT22;49125;48.812;9.206;2022-08-19T11:34:45;24.20;88.80
63039;DHT22;49125;48.812;9.206;2022-08-19T11:37:10;24.20;89.90
63039;DHT22;49125;48.812;9.206;2022-08-19T11:39:36;24.30;88.00
63039;DHT22;49125;48.812;9.206;2022-08-19T11:42:04;24.30;87.40
63039;DHT22;49125;48.812;9.206;2022-08-19T11:44:53;24.30;87.40
63039;DHT22;49125;48.812;9.206;2022-08-19T11:47:19;24.40;86.40
63039;DHT22;49125;48.812;9.206;2022-08-19T11:49:46;24.30;85.70
63039;DHT22;49125;48.812;9.206;2022-08-19T11:52:12;24.20;86.40
63039;DHT22;49125;48.812;9.206;2022-08-19T11:54:37;24.20;86.00
63039;DHT22;49125;48.812;9.206;2022-08-19T11:57:03;24.20;86.00
63039;DHT22;49125;48.812;9.206;2022-08-19T11:59:29;24.20;85.70
63039;DHT22;49125;48.812;9.206;2022-08-19T12:01:55;24.20;86.50
63039;DHT22;49125;48.812;9.206;2022-08-19T12:04:21;24.20;86.70
63039;DHT22;49125;48.812;9.206;2022-08-19T12:06:47;24.20;86.80
63039;DHT22;49125;48.812;9.206;2022-08-19T12:09:13;24.10;85.70
63039;DHT22;49125;48.812;9.206;2022-08-19T12:11:40;24.20;87.50
63039;DHT22;49125;48.812;9.206;2022-08-19T12:14:06;24.20;87.00
63039;DHT22;49125;48.812;9.206;2022-08-19T12:16:34;24.20;86.80
63039;DHT22;49125;48.812;9.206;2022-08-19T12:19:00;24.20;87.50
63039;DHT22;49125;48.812;9.206;2022-08-19T12:21:29;24.30;87.90
63039;DHT22;49125;48.812;9.206;2022-08-19T12:23:57;24.30;88.80
63039;DHT22;49125;48.812;9.206;2022-08-19T12:26:26;24.10;90.40
63039;DHT22;49125;48.812;9.206;2022-08-19T12:28:52;24.00;91.00
63039;DHT22;49125;48.812;9.206;2022-08-19T12:31:17;23.80;91.20
63039;DHT22;49125;48.812;9.206;2022-08-19T12:33:45;23.70;91.70
63039;DHT22;49125;48.812;9.206;2022-08-19T12:36:12;23.60;91.70
63039;DHT22;49125;48.812;9.206;2022-08-19T12:38:39;23.60;92.00
63039;DHT22;49125;48.812;9.206;2022-08-19T12:41:05;23.60;92.10
63039;DHT22;49125;48.812;9.206;2022-08-19T12:43:32;23.60;92.20
63039;DHT22;49125;48.812;9.206;2022-08-19T12:45:58;23.60;92.40
63039;DHT22;49125;48.812;9.206;2022-08-19T12:48:24;23.60;92.60
63039;DHT22;49125;48.812;9.206;2022-08-19T12:50:49;23.60;92.40
63039;DHT22;49125;48.812;9.206;2022-08-19T12:53:15;23.70;92.60
63039;DHT22;49125;48.812;9.206;2022-08-19T12:55:42;23.70;92.60
63039;DHT22;49125;48.812;9.206;2022-08-19T12:58:08;23.90;92.50
63039;DHT22;49125;48.812;9.206;2022-08-19T13:00:34;23.90;92.40
63039;DHT22;49125;48.812;9.206;2022-08-19T13:03:00;23.90;92.90
63039;DHT22;49125;48.812;9.206;2022-08-19T13:05:28;23.80;92.80
63039;DHT22;49125;48.812;9.206;2022-08-19T13:14:39;23.60;93.00
63039;DHT22;49125;48.812;9.206;2022-08-19T13:17:06;23.30;93.10
63039;DHT22;49125;48.812;9.206;2022-08-19T13:19:32;23.20;93.50
63039;DHT22;49125;48.812;9.206;2022-08-19T13:21:57;23.00;93.90
63039;DHT22;49125;48.812;9.206;2022-08-19T13:24:24;22.90;93.80
63039;DHT22;49125;48.812;9.206;2022-08-19T13:26:50;22.90;94.10
63039;DHT22;49125;48.812;9.206;2022-08-19T13:29:15;22.80;94.30
63039;DHT22;49125;48.812;9.206;2022-08-19T13:31:59;22.80;94.60
63039;DHT22;49125;48.812;9.206;2022-08-19T13:34:44;22.70;94.80
63039;DHT22;49125;48.812;9.206;2022-08-19T13:37:12;22.50;95.30
63039;DHT22;49125;48.812;9.206;2022-08-19T13:39:40;22.40;95.70
63039;DHT22;49125;48.812;9.206;2022-08-19T13:42:06;22.30;95.70
63039;DHT22;49125;48.812;9.206;2022-08-19T13:44:33;22.30;96.00
63039;DHT22;49125;48.812;9.206;2022-08-19T13:47:05;22.20;96.20
63039;DHT22;49125;48.812;9.206;2022-08-19T13:49:35;22.10;96.30
63039;DHT22;49125;48.812;9.206;2022-08-19T13:52:03;22.10;96.50
63039;DHT22;49125;48.812;9.206;2022-08-19T13:54:29;22.10;96.70
63039;DHT22;49125;48.812;9.206;2022-08-19T13:56:55;22.00;96.80
63039;DHT22;49125;48.812;9.206;2022-08-19T13:59:20;22.00;97.20
63039;DHT22;49125;48.812;9.206;2022-08-19T14:01:46;21.90;97.40
63039;DHT22;49125;48.812;9.206;2022-08-19T14:04:14;21.90;97.60
63039;DHT22;49125;48.812;9.206;2022-08-19T14:06:40;21.80;97.70
63039;DHT22;49125;48.812;9.206;2022-08-19T14:09:05;21.70;98.20
63039;DHT22;49125;48.812;9.206;2022-08-19T14:11:33;21.70;98.20
63039;DHT22;49125;48.812;9.206;2022-08-19T14:13:58;21.60;98.40
63039;DHT22;49125;48.812;9.206;2022-08-19T14:16:24;21.60;98.50
63039;DHT22;49125;48.812;9.206;2022-08-19T14:18:50;21.60;98.90
63039;DHT22;49125;48.812;9.206;2022-08-19T14:21:19;21.70;99.00
63039;DHT22;49125;48.812;9.206;2022-08-19T14:23:46;21.90;99.00
63039;DHT22;49125;48.812;9.206;2022-08-19T14:26:14;22.00;99.00
63039;DHT22;49125;48.812;9.206;2022-08-19T14:28:42;22.00;99.10
63039;DHT22;49125;48.812;9.206;2022-08-19T14:31:09;22.10;99.00
63039;DHT22;49125;48.812;9.206;2022-08-19T14:33:35;22.20;98.80
63039;DHT22;49125;48.812;9.206;2022-08-19T14:36:00;22.30;98.90
63039;DHT22;49125;48.812;9.206;2022-08-19T14:38:26;22.40;99.10
63039;DHT22;49125;48.812;9.206;2022-08-19T14:40:52;22.50;98.40
63039;DHT22;49125;48.812;9.206;2022-08-19T14:43:18;22.60;98.40
63039;DHT22;49125;48.812;9.206;2022-08-19T14:45:44;22.70;98.10
63039;DHT22;49125;48.812;9.206;2022-08-19T14:48:09;22.80;97.80
63039;DHT22;49125;48.812;9.206;2022-08-19T14:50:35;22.80;97.80
63039;DHT22;49125;48.812;9.206;2022-08-19T14:53:07;22.80;97.50
63039;DHT22;49125;48.812;9.206;2022-08-19T14:55:33;22.70;97.30
63039;DHT22;49125;48.812;9.206;2022-08-19T14:57:59;22.60;97.40
63039;DHT22;49125;48.812;9.206;2022-08-19T15:00:25;22.60;97.40
63039;DHT22;49125;48.812;9.206;2022-08-19T15:02:51;22.70;97.60
63039;DHT22;49125;48.812;9.206;2022-08-19T15:05:17;22.80;97.50
63039;DHT22;49125;48.812;9.206;2022-08-19T15:07:43;22.90;97.30
63039;DHT22;49125;48.812;9.206;2022-08-19T15:10:10;23.10;97.20
63039;DHT22;49125;48.812;9.206;2022-08-19T15:12:36;23.30;97.00
63039;DHT22;49125;48.812;9.206;2022-08-19T15:15:06;23.50;96.20
63039;DHT22;49125;48.812;9.206;2022-08-19T15:17:31;23.60;95.80
63039;DHT22;49125;48.812;9.206;2022-08-19T15:19:57;23.70;95.80
63039;DHT22;49125;48.812;9.206;2022-08-19T15:22:23;23.80;95.70
63039;DHT22;49125;48.812;9.206;2022-08-19T15:24:48;23.90;95.00
63039;DHT22;49125;48.812;9.206;2022-08-19T15:27:14;23.80;95.50
63039;DHT22;49125;48.812;9.206;2022-08-19T15:29:40;23.80;94.80
63039;DHT22;49125;48.812;9.206;2022-08-19T15:32:06;23.70;95.00
63039;DHT22;49125;48.812;9.206;2022-08-19T15:34:33;23.90;94.90
63039;DHT22;49125;48.812;9.206;2022-08-19T15:36:59;23.90;95.00
63039;DHT22;49125;48.812;9.206;2022-08-19T15:39:25;23.90;94.80
63039;DHT22;49125;48.812;9.206;2022-08-19T15:41:51;24.10;94.70
63039;DHT22;49125;48.812;9.206;2022-08-19T15:44:18;24.20;94.50
63039;DHT22;49125;48.812;9.206;2022-08-19T15:46:46;24.30;94.30
63039;DHT22;49125;48.812;9.206;2022-08-19T15:49:14;24.40;93.90
63039;DHT22;49125;48.812;9.206;2022-08-19T15:51:41;24.40;94.00